sensor_id;sensor_type;location;lat;lon;timestamp;pressure;altitude;pressure_sealevel;temperature;humidity
15405;BME280;7801;48.124;11.590;2023-02-11T00:00:50;97292.09;;;2.08;69.48
15405;BME280;7801;48.124;11.590;2023-02-11T00:03:15;97295.13;;;2.05;69.49
15405;BME280;7801;48.124;11.590;2023-02-11T00:05:41;97290.09;;;2.11;69.21
15405;BME280;7801;48.124;11.590;2023-02-11T00:08:06;97290.50;;;2.08;69.27
15405;BME280;7801;48.124;11.590;2023-02-11T00:10:31;97284.47;;;2.07;69.88
15405;BME280;7801;48.124;11.590;2023-02-11T00:12:56;97286.06;;;2.08;69.60
15405;BME280;7801;48.124;11.590;2023-02-11T00:15:22;97287.28;;;2.12;69.39
15405;BME280;7801;48.124;11.590;2023-02-11T00:17:48;97288.25;;;2.04;69.82
15405;BME280;7801;48.124;11.590;2023-02-11T00:20:14;97291.09;;;2.10;69.44
15405;BME280;7801;48.124;11.590;2023-02-11T00:22:40;97294.19;;;2.20;69.20
15405;BME280;7801;48.124;11.590;2023-02-11T00:25:05;97304.19;;;2.10;69.29
15405;BME280;7801;48.124;11.590;2023-02-11T00:27:31;97301.75;;;1.80;70.29
15405;BME280;7801;48.124;11.590;2023-02-11T00:29:56;97291.88;;;2.03;69.91
15405;BME280;7801;48.124;11.590;2023-02-11T00:32:21;97292.56;;;1.91;70.27
15405;BME280;7801;48.124;11.590;2023-02-11T00:34:51;97291.47;;;1.79;70.96
15405;BME280;7801;48.124;11.590;2023-02-11T00:37:16;97284.00;;;1.76;70.85
15405;BME280;7801;48.124;11.590;2023-02-11T00:39:42;97280.91;;;1.65;71.14
15405;BME280;7801;48.124;11.590;2023-02-11T00:42:15;97276.38;;;1.53;71.46
15405;BME280;7801;48.124;11.590;2023-02-11T00:44:41;97281.16;;;1.28;72.46
15405;BME280;7801;48.124;11.590;2023-02-11T00:47:06;97272.31;;;1.50;72.34
15405;BME280;7801;48.124;11.590;2023-02-11T00:49:31;97279.13;;;1.45;71.90
15405;BME280;7801;48.124;11.590;2023-02-11T00:51:57;97272.75;;;1.54;71.87
15405;BME280;7801;48.124;11.590;2023-02-11T00:54:22;97262.78;;;1.64;71.61
15405;BME280;7801;48.124;11.590;2023-02-11T00:56:47;97262.97;;;1.62;71.56
15405;BME280;7801;48.124;11.590;2023-02-11T00:59:13;97258.81;;;1.47;71.80
15405;BME280;7801;48.124;11.590;2023-02-11T01:01:38;97259.56;;;1.62;71.55
15405;BME280;7801;48.124;11.590;2023-02-11T01:04:03;97260.09;;;1.79;70.78
15405;BME280;7801;48.124;11.590;2023-02-11T01:06:29;97260.41;;;1.69;71.30
15405;BME280;7801;48.124;11.590;2023-02-11T01:08:54;97266.41;;;1.63;71.18
15405;BME280;7801;48.124;11.590;2023-02-11T01:11:20;97262.88;;;1.77;71.00
15405;BME280;7801;48.124;11.590;2023-02-11T01:13:47;97258.72;;;1.83;70.39
15405;BME280;7801;48.124;11.590;2023-02-11T01:16:13;97256.75;;;1.63;71.00
15405;BME280;7801;48.124;11.590;2023-02-11T01:18:38;97257.59;;;1.70;70.75
15405;BME280;7801;48.124;11.590;2023-02-11T01:21:03;97254.69;;;1.59;70.67
15405;BME280;7801;48.124;11.590;2023-02-11T01:23:29;97259.41;;;1.70;71.16
15405;BME280;7801;48.124;11.590;2023-02-11T01:25:55;97261.56;;;1.60;70.63
15405;BME280;7801;48.124;11.590;2023-02-11T01:28:24;97264.75;;;1.83;70.36
15405;BME280;7801;48.124;11.590;2023-02-11T01:30:50;97258.59;;;1.69;70.16
15405;BME280;7801;48.124;11.590;2023-02-11T01:33:15;97255.97;;;1.69;70.47
15405;BME280;7801;48.124;11.590;2023-02-11T01:35:41;97244.00;;;1.82;70.00
15405;BME280;7801;48.124;11.590;2023-02-11T01:38:08;97250.19;;;1.74;70.15
15405;BME280;7801;48.124;11.590;2023-02-11T01:40:38;97251.56;;;1.70;70.21
15405;BME280;7801;48.124;11.590;2023-02-11T01:43:04;97256.06;;;1.33;71.48
15405;BME280;7801;48.124;11.590;2023-02-11T01:48:20;97249.84;;;1.56;70.50
15405;BME280;7801;48.124;11.590;2023-02-11T01:50:49;97250.53;;;1.64;70.22
15405;BME280;7801;48.124;11.590;2023-02-11T01:53:17;97250.47;;;1.58;70.03
15405;BME280;7801;48.124;11.590;2023-02-11T01:56:03;97257.25;;;1.52;70.24
15405;BME280;7801;48.124;11.590;2023-02-11T01:58:48;97261.62;;;1.45;70.85
15405;BME280;7801;48.124;11.590;2023-02-11T02:01:16;97259.31;;;1.57;70.37
15405;BME280;7801;48.124;11.590;2023-02-11T02:03:45;97258.25;;;1.51;70.36
15405;BME280;7801;48.124;11.590;2023-02-11T02:06:21;97253.09;;;1.58;69.96
15405;BME280;7801;48.124;11.590;2023-02-11T02:09:11;97259.06;;;1.52;70.12
15405;BME280;7801;48.124;11.590;2023-02-11T02:11:40;97253.72;;;1.38;70.41
15405;BME280;7801;48.124;11.590;2023-02-11T02:14:06;97249.59;;;1.51;70.04
15405;BME280;7801;48.124;11.590;2023-02-11T02:16:35;97250.59;;;1.50;70.06
15405;BME280;7801;48.124;11.590;2023-02-11T02:28:01;97233.78;;;0.95;72.20
15405;BME280;7801;48.124;11.590;2023-02-11T02:34:08;97221.22;;;1.05;72.02
15405;BME280;7801;48.124;11.590;2023-02-11T02:36:49;97219.22;;;1.07;71.75
15405;BME280;7801;48.124;11.590;2023-02-11T02:39:23;97208.59;;;1.09;71.89
15405;BME280;7801;48.124;11.590;2023-02-11T02:41:50;97206.97;;;1.08;71.56
15405;BME280;7801;48.124;11.590;2023-02-11T02:44:18;97201.63;;;1.16;71.63
15405;BME280;7801;48.124;11.590;2023-02-11T02:46:44;97209.28;;;1.17;70.99
15405;BME280;7801;48.124;11.590;2023-02-11T02:49:12;97204.63;;;1.13;71.14
15405;BME280;7801;48.124;11.590;2023-02-11T03:00:16;97197.75;;;1.33;70.53
15405;BME280;7801;48.124;11.590;2023-02-11T03:08:33;97184.53;;;1.13;70.67
15405;BME280;7801;48.124;11.590;2023-02-11T03:11:02;97180.97;;;0.99;71.30
15405;BME280;7801;48.124;11.590;2023-02-11T03:13:33;97175.44;;;1.09;71.41
15405;BME280;7801;48.124;11.590;2023-02-11T03:16:07;97178.72;;;1.18;70.56
15405;BME280;7801;48.124;11.590;2023-02-11T03:18:34;97169.47;;;1.15;70.87
15405;BME280;7801;48.124;11.590;2023-02-11T03:21:01;97161.91;;;1.27;70.35
15405;BME280;7801;48.124;11.590;2023-02-11T03:23:34;97166.75;;;1.30;69.91
15405;BME280;7801;48.124;11.590;2023-02-11T03:26:07;97162.44;;;1.16;69.77
15405;BME280;7801;48.124;11.590;2023-02-11T03:31:37;97153.16;;;1.13;69.67
15405;BME280;7801;48.124;11.590;2023-02-11T03:34:25;97148.81;;;1.20;69.51
15405;BME280;7801;48.124;11.590;2023-02-11T03:36:57;97145.66;;;0.82;70.53
15405;BME280;7801;48.124;11.590;2023-02-11T03:39:29;97149.31;;;0.88;70.35
15405;BME280;7801;48.124;11.590;2023-02-11T03:41:59;97153.91;;;0.86;70.24
15405;BME280;7801;48.124;11.590;2023-02-11T03:44:30;97154.22;;;0.97;69.78
15405;BME280;7801;48.124;11.590;2023-02-11T03:46:57;97165.97;;;0.87;69.88
15405;BME280;7801;48.124;11.590;2023-02-11T03:49:25;97169.72;;;0.99;69.12
15405;BME280;7801;48.124;11.590;2023-02-11T03:51:52;97156.84;;;0.97;68.99
15405;BME280;7801;48.124;11.590;2023-02-11T03:54:23;97155.66;;;1.00;69.23
15405;BME280;7801;48.124;11.590;2023-02-11T03:56:53;97154.84;;;0.99;69.28
15405;BME280;7801;48.124;11.590;2023-02-11T03:59:19;97152.34;;;1.13;69.07
15405;BME280;7801;48.124;11.590;2023-02-11T04:01:44;97162.53;;;1.29;68.03
15405;BME280;7801;48.124;11.590;2023-02-11T04:04:10;97164.31;;;1.22;67.94
15405;BME280;7801;48.124;11.590;2023-02-11T04:06:35;97166.59;;;1.10;68.11
15405;BME280;7801;48.124;11.590;2023-02-11T04:09:01;97162.06;;;1.19;67.99
15405;BME280;7801;48.124;11.590;2023-02-11T04:11:26;97154.16;;;1.12;68.24
15405;BME280;7801;48.124;11.590;2023-02-11T04:13:52;97166.72;;;1.23;67.75
15405;BME280;7801;48.124;11.590;2023-02-11T04:16:17;97170.72;;;1.19;68.16
15405;BME280;7801;48.124;11.590;2023-02-11T04:18:42;97168.81;;;1.34;67.35
15405;BME280;7801;48.124;11.590;2023-02-11T04:21:08;97177.41;;;1.07;67.77
15405;BME280;7801;48.124;11.590;2023-02-11T04:23:33;97175.88;;;1.13;68.02
15405;BME280;7801;48.124;11.590;2023-02-11T04:25:58;97180.72;;;0.94;68.72
15405;BME280;7801;48.124;11.590;2023-02-11T04:28:24;97185.44;;;1.06;68.23
15405;BME280;7801;48.124;11.590;2023-02-11T04:30:51;97181.63;;;1.29;67.57
15405;BME280;7801;48.124;11.590;2023-02-11T04:33:16;97185.75;;;1.38;66.98
15405;BME280;7801;48.124;11.590;2023-02-11T04:35:42;97172.91;;;1.44;66.87
15405;BME280;7801;48.124;11.590;2023-02-11T04:38:07;97169.62;;;1.35;67.04
15405;BME280;7801;48.124;11.590;2023-02-11T04:40:32;97185.38;;;1.42;66.99
15405;BME280;7801;48.124;11.590;2023-02-11T04:42:58;97190.25;;;1.51;66.76
15405;BME280;7801;48.124;11.590;2023-02-11T04:45:23;97188.00;;;1.42;66.86
15405;BME280;7801;48.124;11.590;2023-02-11T04:47:48;97193.19;;;1.63;66.32
15405;BME280;7801;48.124;11.590;2023-02-11T04:50:14;97200.06;;;1.70;66.04
15405;BME280;7801;48.124;11.590;2023-02-11T04:52:39;97196.28;;;1.52;66.40
15405;BME280;7801;48.124;11.590;2023-02-11T04:55:05;97207.50;;;1.46;66.77
15405;BME280;7801;48.124;11.590;2023-02-11T04:57:30;97212.16;;;1.22;67.44
15405;BME280;7801;48.124;11.590;2023-02-11T04:59:55;97210.03;;;1.32;67.45
15405;BME280;7801;48.124;11.590;2023-02-11T05:02:21;97220.63;;;1.24;67.76
15405;BME280;7801;48.124;11.590;2023-02-11T05:04:46;97222.53;;;1.37;67.45
15405;BME280;7801;48.124;11.590;2023-02-11T05:07:12;97217.22;;;1.52;66.99
15405;BME280;7801;48.124;11.590;2023-02-11T05:09:37;97217.19;;;1.45;67.42
15405;BME280;7801;48.124;11.590;2023-02-11T05:12:02;97216.50;;;1.15;68.34
15405;BME280;7801;48.124;11.590;2023-02-11T05:14:28;97211.81;;;1.11;68.89
15405;BME280;7801;48.124;11.590;2023-02-11T05:16:53;97215.00;;;1.27;67.97
15405;BME280;7801;48.124;11.590;2023-02-11T05:19:18;97219.72;;;0.96;69.10
15405;BME280;7801;48.124;11.590;2023-02-11T05:21:44;97209.16;;;0.83;69.77
15405;BME280;7801;48.124;11.590;2023-02-11T05:24:09;97200.62;;;0.95;69.93
15405;BME280;7801;48.124;11.590;2023-02-11T05:26:35;97203.44;;;0.94;69.75
15405;BME280;7801;48.124;11.590;2023-02-11T05:29:01;97195.22;;;0.97;69.62
15405;BME280;7801;48.124;11.590;2023-02-11T05:31:26;97191.19;;;1.16;69.41
15405;BME280;7801;48.124;11.590;2023-02-11T05:33:51;97191.88;;;1.24;69.32
15405;BME280;7801;48.124;11.590;2023-02-11T05:36:16;97190.66;;;1.06;69.36
15405;BME280;7801;48.124;11.590;2023-02-11T05:38:42;97189.63;;;0.79;70.60
15405;BME280;7801;48.124;11.590;2023-02-11T05:41:08;97191.53;;;0.70;70.53
15405;BME280;7801;48.124;11.590;2023-02-11T05:43:34;97195.03;;;0.98;70.07
15405;BME280;7801;48.124;11.590;2023-02-11T05:46:01;97186.25;;;1.06;69.71
15405;BME280;7801;48.124;11.590;2023-02-11T05:48:26;97176.41;;;1.29;69.16
15405;BME280;7801;48.124;11.590;2023-02-11T05:50:51;97172.56;;;1.53;68.08
15405;BME280;7801;48.124;11.590;2023-02-11T05:53:17;97167.91;;;1.49;68.05
15405;BME280;7801;48.124;11.590;2023-02-11T05:55:42;97181.34;;;1.46;67.86
15405;BME280;7801;48.124;11.590;2023-02-11T05:58:07;97187.47;;;1.03;69.27
15405;BME280;7801;48.124;11.590;2023-02-11T06:00:33;97181.41;;;1.24;68.54
15405;BME280;7801;48.124;11.590;2023-02-11T06:02:59;97178.00;;;1.24;68.51
15405;BME280;7801;48.124;11.590;2023-02-11T06:05:24;97170.06;;;1.38;68.31
15405;BME280;7801;48.124;11.590;2023-02-11T06:07:50;97163.72;;;1.54;67.65
15405;BME280;7801;48.124;11.590;2023-02-11T06:10:15;97162.78;;;1.62;66.94
15405;BME280;7801;48.124;11.590;2023-02-11T06:12:40;97161.25;;;1.74;66.71
15405;BME280;7801;48.124;11.590;2023-02-11T06:15:06;97169.56;;;1.84;66.18
15405;BME280;7801;48.124;11.590;2023-02-11T06:17:31;97170.09;;;1.73;65.99
15405;BME280;7801;48.124;11.590;2023-02-11T06:19:58;97171.56;;;1.82;65.51
15405;BME280;7801;48.124;11.590;2023-02-11T06:22:26;97169.78;;;1.55;66.59
15405;BME280;7801;48.124;11.590;2023-02-11T06:24:51;97170.44;;;1.35;66.99
15405;BME280;7801;48.124;11.590;2023-02-11T06:27:16;97167.69;;;1.44;67.32
15405;BME280;7801;48.124;11.590;2023-02-11T06:29:43;97168.53;;;1.51;67.60
15405;BME280;7801;48.124;11.590;2023-02-11T06:32:09;97165.78;;;1.59;66.89
15405;BME280;7801;48.124;11.590;2023-02-11T06:34:34;97164.47;;;1.76;66.40
15405;BME280;7801;48.124;11.590;2023-02-11T06:36:59;97168.22;;;1.67;66.71
15405;BME280;7801;48.124;11.590;2023-02-11T06:39:25;97170.34;;;1.78;65.74
15405;BME280;7801;48.124;11.590;2023-02-11T06:41:50;97181.03;;;1.83;65.21
15405;BME280;7801;48.124;11.590;2023-02-11T06:44:15;97186.97;;;1.70;65.31
15405;BME280;7801;48.124;11.590;2023-02-11T06:46:41;97184.53;;;1.97;64.96
15405;BME280;7801;48.124;11.590;2023-02-11T06:49:06;97173.41;;;1.88;64.95
15405;BME280;7801;48.124;11.590;2023-02-11T06:51:31;97164.38;;;1.91;65.08
15405;BME280;7801;48.124;11.590;2023-02-11T06:53:56;97160.66;;;2.06;64.39
15405;BME280;7801;48.124;11.590;2023-02-11T06:56:22;97160.22;;;2.10;63.80
15405;BME280;7801;48.124;11.590;2023-02-11T06:58:55;97168.41;;;1.93;63.57
15405;BME280;7801;48.124;11.590;2023-02-11T07:01:22;97177.34;;;2.12;62.92
15405;BME280;7801;48.124;11.590;2023-02-11T07:03:48;97175.84;;;2.31;62.24
15405;BME280;7801;48.124;11.590;2023-02-11T07:06:16;97179.41;;;2.17;62.20
15405;BME280;7801;48.124;11.590;2023-02-11T07:08:42;97193.44;;;2.02;62.41
15405;BME280;7801;48.124;11.590;2023-02-11T07:11:14;97199.28;;;2.04;62.36
15405;BME280;7801;48.124;11.590;2023-02-11T07:13:40;97196.87;;;2.10;62.39
15405;BME280;7801;48.124;11.590;2023-02-11T07:16:08;97194.06;;;2.04;62.16
15405;BME280;7801;48.124;11.590;2023-02-11T07:18:34;97194.81;;;1.98;62.10
15405;BME280;7801;48.124;11.590;2023-02-11T07:21:03;97187.19;;;2.03;62.07
15405;BME280;7801;48.124;11.590;2023-02-11T07:23:28;97187.25;;;2.17;61.87
15405;BME280;7801;48.124;11.590;2023-02-11T07:25:53;97175.31;;;2.49;60.79
15405;BME280;7801;48.124;11.590;2023-02-11T07:28:19;97177.97;;;2.08;61.76
15405;BME280;7801;48.124;11.590;2023-02-11T07:30:44;97174.69;;;2.40;61.22
15405;BME280;7801;48.124;11.590;2023-02-11T07:33:09;97154.38;;;2.55;60.37
15405;BME280;7801;48.124;11.590;2023-02-11T07:35:35;97149.50;;;2.39;60.61
15405;BME280;7801;48.124;11.590;2023-02-11T07:38:00;97158.22;;;2.59;60.11
15405;BME280;7801;48.124;11.590;2023-02-11T07:40:25;97162.88;;;2.64;59.91
15405;BME280;7801;48.124;11.590;2023-02-11T07:42:51;97178.94;;;2.54;60.38
15405;BME280;7801;48.124;11.590;2023-02-11T07:45:16;97182.00;;;2.58;60.38
15405;BME280;7801;48.124;11.590;2023-02-11T07:47:41;97185.19;;;2.47;60.30
15405;BME280;7801;48.124;11.590;2023-02-11T07:50:08;97174.31;;;2.56;60.47
15405;BME280;7801;48.124;11.590;2023-02-11T07:52:33;97174.31;;;2.56;60.25
15405;BME280;7801;48.124;11.590;2023-02-11T07:54:58;97169.16;;;2.69;60.35
15405;BME280;7801;48.124;11.590;2023-02-11T07:57:24;97173.97;;;2.66;59.89
15405;BME280;7801;48.124;11.590;2023-02-11T07:59:50;97184.09;;;2.89;59.51
15405;BME280;7801;48.124;11.590;2023-02-11T08:02:15;97180.06;;;2.86;59.46
15405;BME280;7801;48.124;11.590;2023-02-11T08:04:40;97173.41;;;2.84;59.48
15405;BME280;7801;48.124;11.590;2023-02-11T08:07:05;97161.09;;;2.84;59.92
15405;BME280;7801;48.124;11.590;2023-02-11T08:09:31;97151.59;;;2.76;59.98
15405;BME280;7801;48.124;11.590;2023-02-11T08:11:56;97140.94;;;2.78;61.00
15405;BME280;7801;48.124;11.590;2023-02-11T08:14:22;97140.75;;;2.80;60.27
15405;BME280;7801;48.124;11.590;2023-02-11T08:16:49;97141.00;;;3.11;59.53
15405;BME280;7801;48.124;11.590;2023-02-11T08:19:15;97135.75;;;3.11;59.27
15405;BME280;7801;48.124;11.590;2023-02-11T08:21:41;97130.69;;;3.09;59.06
15405;BME280;7801;48.124;11.590;2023-02-11T08:24:07;97135.72;;;3.37;58.23
15405;BME280;7801;48.124;11.590;2023-02-11T08:26:33;97133.31;;;3.29;58.66
15405;BME280;7801;48.124;11.590;2023-02-11T08:29:06;97127.25;;;3.22;58.93
15405;BME280;7801;48.124;11.590;2023-02-11T08:31:34;97126.06;;;3.31;58.91
15405;BME280;7801;48.124;11.590;2023-02-11T08:34:00;97118.78;;;3.47;59.10
15405;BME280;7801;48.124;11.590;2023-02-11T08:36:32;97134.53;;;3.47;58.34
15405;BME280;7801;48.124;11.590;2023-02-11T08:38:59;97130.88;;;3.48;57.83
15405;BME280;7801;48.124;11.590;2023-02-11T08:41:27;97140.78;;;3.52;57.49
15405;BME280;7801;48.124;11.590;2023-02-11T08:43:52;97144.03;;;3.28;57.82
15405;BME280;7801;48.124;11.590;2023-02-11T08:46:19;97155.31;;;3.22;58.26
15405;BME280;7801;48.124;11.590;2023-02-11T08:48:45;97165.78;;;3.02;58.95
15405;BME280;7801;48.124;11.590;2023-02-11T08:51:17;97173.03;;;3.06;59.01
15405;BME280;7801;48.124;11.590;2023-02-11T08:53:43;97168.00;;;3.18;58.95
15405;BME280;7801;48.124;11.590;2023-02-11T08:56:10;97159.09;;;2.99;59.72
15405;BME280;7801;48.124;11.590;2023-02-11T08:58:36;97169.22;;;3.22;59.50
15405;BME280;7801;48.124;11.590;2023-02-11T09:01:11;97168.59;;;3.07;60.57
15405;BME280;7801;48.124;11.590;2023-02-11T09:03:37;97171.63;;;3.04;60.50
15405;BME280;7801;48.124;11.590;2023-02-11T09:06:07;97159.13;;;3.12;60.01
15405;BME280;7801;48.124;11.590;2023-02-11T09:08:37;97163.16;;;3.35;59.46
15405;BME280;7801;48.124;11.590;2023-02-11T09:11:03;97159.16;;;3.32;59.59
15405;BME280;7801;48.124;11.590;2023-02-11T09:13:30;97165.59;;;3.36;59.53
15405;BME280;7801;48.124;11.590;2023-02-11T09:15:56;97167.59;;;3.41;59.89
15405;BME280;7801;48.124;11.590;2023-02-11T09:18:22;97159.53;;;3.56;59.25
15405;BME280;7801;48.124;11.590;2023-02-11T09:20:47;97152.25;;;3.71;58.48
15405;BME280;7801;48.124;11.590;2023-02-11T09:23:13;97145.00;;;3.73;58.33
15405;BME280;7801;48.124;11.590;2023-02-11T09:25:39;97148.38;;;3.87;57.92
15405;BME280;7801;48.124;11.590;2023-02-11T09:28:05;97150.59;;;3.90;57.68
15405;BME280;7801;48.124;11.590;2023-02-11T09:30:30;97148.94;;;4.08;57.41
15405;BME280;7801;48.124;11.590;2023-02-11T09:32:56;97139.16;;;4.29;56.30
15405;BME280;7801;48.124;11.590;2023-02-11T09:35:21;97135.53;;;4.30;56.23
15405;BME280;7801;48.124;11.590;2023-02-11T09:37:46;97139.25;;;4.02;56.45
15405;BME280;7801;48.124;11.590;2023-02-11T09:40:13;97127.69;;;4.17;56.22
15405;BME280;7801;48.124;11.590;2023-02-11T09:42:44;97128.59;;;4.42;55.38
15405;BME280;7801;48.124;11.590;2023-02-11T09:45:29;97137.56;;;4.21;56.53
15405;BME280;7801;48.124;11.590;2023-02-11T09:48:04;97134.72;;;4.36;56.20
15405;BME280;7801;48.124;11.590;2023-02-11T09:50:42;97137.28;;;4.42;55.90
15405;BME280;7801;48.124;11.590;2023-02-11T09:53:27;97135.47;;;4.43;55.31
15405;BME280;7801;48.124;11.590;2023-02-11T09:55:59;97140.22;;;4.59;54.51
15405;BME280;7801;48.124;11.590;2023-02-11T10:09:39;97123.41;;;4.35;55.22
15405;BME280;7801;48.124;11.590;2023-02-11T10:20:18;97112.00;;;4.48;55.38
15405;BME280;7801;48.124;11.590;2023-02-11T10:22:50;97110.66;;;4.70;55.04
15405;BME280;7801;48.124;11.590;2023-02-11T10:25:27;97123.28;;;4.55;55.52
15405;BME280;7801;48.124;11.590;2023-02-11T10:27:56;97122.28;;;4.56;55.28
15405;BME280;7801;48.124;11.590;2023-02-11T10:35:36;97114.78;;;4.91;54.72
15405;BME280;7801;48.124;11.590;2023-02-11T10:38:02;97114.50;;;4.99;54.81
15405;BME280;7801;48.124;11.590;2023-02-11T10:40:29;97109.53;;;4.91;54.57
15405;BME280;7801;48.124;11.590;2023-02-11T10:43:02;97102.09;;;5.13;54.33
15405;BME280;7801;48.124;11.590;2023-02-11T10:47:57;97091.81;;;5.05;54.69
15405;BME280;7801;48.124;11.590;2023-02-11T10:50:32;97097.41;;;5.15;55.17
15405;BME280;7801;48.124;11.590;2023-02-11T10:53:17;97100.09;;;5.33;54.68
15405;BME280;7801;48.124;11.590;2023-02-11T10:55:52;97105.13;;;5.35;54.89
15405;BME280;7801;48.124;11.590;2023-02-11T10:58:24;97100.69;;;5.10;54.66
15405;BME280;7801;48.124;11.590;2023-02-11T11:00:52;97114.94;;;5.21;54.44
15405;BME280;7801;48.124;11.590;2023-02-11T11:03:39;97106.25;;;5.45;54.43
15405;BME280;7801;48.124;11.590;2023-02-11T11:06:10;97094.19;;;5.38;54.83
15405;BME280;7801;48.124;11.590;2023-02-11T11:08:41;97088.56;;;5.52;55.69
15405;BME280;7801;48.124;11.590;2023-02-11T11:11:13;97087.84;;;5.64;55.73
15405;BME280;7801;48.124;11.590;2023-02-11T11:13:41;97089.03;;;5.68;54.89
15405;BME280;7801;48.124;11.590;2023-02-11T11:16:27;97087.63;;;5.65;53.87
15405;BME280;7801;48.124;11.590;2023-02-11T11:19:14;97083.03;;;5.61;53.75
15405;BME280;7801;48.124;11.590;2023-02-11T11:21:41;97081.06;;;5.74;53.85
15405;BME280;7801;48.124;11.590;2023-02-11T11:24:42;97081.72;;;5.88;53.19
15405;BME280;7801;48.124;11.590;2023-02-11T11:27:16;97075.88;;;5.86;52.15
15405;BME280;7801;48.124;11.590;2023-02-11T11:29:45;97074.44;;;5.90;53.16
15405;BME280;7801;48.124;11.590;2023-02-11T11:32:18;97070.78;;;5.91;53.61
15405;BME280;7801;48.124;11.590;2023-02-11T11:35:16;97068.31;;;5.96;53.78
15405;BME280;7801;48.124;11.590;2023-02-11T11:37:44;97065.91;;;5.88;52.69
15405;BME280;7801;48.124;11.590;2023-02-11T11:40:28;97061.00;;;5.98;51.75
15405;BME280;7801;48.124;11.590;2023-02-11T11:45:37;97055.28;;;6.01;51.01
15405;BME280;7801;48.124;11.590;2023-02-11T11:48:17;97061.00;;;5.98;51.31
15405;BME280;7801;48.124;11.590;2023-02-11T11:51:03;97051.53;;;6.09;50.40
15405;BME280;7801;48.124;11.590;2023-02-11T11:53:39;97055.41;;;6.06;50.61
15405;BME280;7801;48.124;11.590;2023-02-11T11:56:12;97064.31;;;6.05;50.01
15405;BME280;7801;48.124;11.590;2023-02-11T11:58:38;97070.78;;;6.09;50.11
15405;BME280;7801;48.124;11.590;2023-02-11T12:06:42;97069.88;;;6.45;48.57
15405;BME280;7801;48.124;11.590;2023-02-11T12:09:52;97066.34;;;6.40;48.48
15405;BME280;7801;48.124;11.590;2023-02-11T12:21:09;97043.50;;;6.64;47.91
15405;BME280;7801;48.124;11.590;2023-02-11T12:26:21;97054.19;;;6.80;48.07
15405;BME280;7801;48.124;11.590;2023-02-11T12:29:08;97052.13;;;6.82;47.75
15405;BME280;7801;48.124;11.590;2023-02-11T12:36:59;97045.41;;;6.57;45.15
15405;BME280;7801;48.124;11.590;2023-02-11T12:39:41;97035.16;;;6.78;45.34
15405;BME280;7801;48.124;11.590;2023-02-11T12:45:22;97033.19;;;6.74;46.28
15405;BME280;7801;48.124;11.590;2023-02-11T12:48:09;97020.97;;;7.03;45.94
15405;BME280;7801;48.124;11.590;2023-02-11T12:51:12;97022.56;;;6.92;45.12
15405;BME280;7801;48.124;11.590;2023-02-11T12:57:10;97019.78;;;6.87;45.48
15405;BME280;7801;48.124;11.590;2023-02-11T12:59:44;97020.28;;;6.96;45.65
15405;BME280;7801;48.124;11.590;2023-02-11T13:03:19;97012.56;;;6.82;46.05
15405;BME280;7801;48.124;11.590;2023-02-11T13:05:28;97018.66;;;6.83;45.88
15405;BME280;7801;48.124;11.590;2023-02-11T13:10:55;97004.53;;;6.89;46.23
15405;BME280;7801;48.124;11.590;2023-02-11T13:13:25;97012.56;;;6.82;46.14
15405;BME280;7801;48.124;11.590;2023-02-11T13:16:00;97003.41;;;6.85;46.04
15405;BME280;7801;48.124;11.590;2023-02-11T13:18:35;97011.91;;;6.99;45.44
15405;BME280;7801;48.124;11.590;2023-02-11T13:29:32;96989.97;;;6.75;46.67
15405;BME280;7801;48.124;11.590;2023-02-11T13:32:09;96983.06;;;6.62;47.10
15405;BME280;7801;48.124;11.590;2023-02-11T13:42:22;96977.16;;;7.02;45.57
15405;BME280;7801;48.124;11.590;2023-02-11T13:44:48;96972.53;;;7.09;45.66
15405;BME280;7801;48.124;11.590;2023-02-11T13:47:32;96984.38;;;7.18;44.95
15405;BME280;7801;48.124;11.590;2023-02-11T13:50:00;96983.91;;;7.21;44.68
15405;BME280;7801;48.124;11.590;2023-02-11T13:52:35;96973.47;;;7.14;44.58
15405;BME280;7801;48.124;11.590;2023-02-11T13:55:21;96978.06;;;7.19;45.24
15405;BME280;7801;48.124;11.590;2023-02-11T14:14:13;96976.22;;;7.19;44.61
15405;BME280;7801;48.124;11.590;2023-02-11T14:19:42;96971.97;;;7.30;44.81
15405;BME280;7801;48.124;11.590;2023-02-11T14:27:22;96972.31;;;7.34;45.10
15405;BME280;7801;48.124;11.590;2023-02-11T14:38:03;96978.69;;;7.49;45.82
15405;BME280;7801;48.124;11.590;2023-02-11T14:43:26;96986.97;;;7.53;43.76
15405;BME280;7801;48.124;11.590;2023-02-11T14:45:54;96989.84;;;7.63;43.60
15405;BME280;7801;48.124;11.590;2023-02-11T14:48:27;96984.41;;;7.70;44.82
15405;BME280;7801;48.124;11.590;2023-02-11T14:51:01;96981.88;;;7.75;44.61
15405;BME280;7801;48.124;11.590;2023-02-11T14:53:27;96981.75;;;7.70;44.25
15405;BME280;7801;48.124;11.590;2023-02-11T14:55:54;96989.03;;;7.63;44.62
15405;BME280;7801;48.124;11.590;2023-02-11T14:58:22;96983.75;;;7.63;45.26
15405;BME280;7801;48.124;11.590;2023-02-11T15:01:03;96988.88;;;7.69;45.30
15405;BME280;7801;48.124;11.590;2023-02-11T15:03:35;96988.44;;;7.61;46.02
15405;BME280;7801;48.124;11.590;2023-02-11T15:06:11;96995.22;;;7.56;45.92
15405;BME280;7801;48.124;11.590;2023-02-11T15:09:12;97002.09;;;7.69;46.08
15405;BME280;7801;48.124;11.590;2023-02-11T15:11:40;97003.16;;;7.68;46.28
15405;BME280;7801;48.124;11.590;2023-02-11T15:14:10;97005.34;;;7.59;48.07
15405;BME280;7801;48.124;11.590;2023-02-11T15:16:41;96994.31;;;7.51;48.11
15405;BME280;7801;48.124;11.590;2023-02-11T15:19:27;96994.66;;;7.54;49.30
15405;BME280;7801;48.124;11.590;2023-02-11T15:21:54;96998.13;;;7.43;49.32
15405;BME280;7801;48.124;11.590;2023-02-11T15:24:25;96990.28;;;7.48;49.15
15405;BME280;7801;48.124;11.590;2023-02-11T15:29:23;96992.28;;;7.41;50.07
15405;BME280;7801;48.124;11.590;2023-02-11T15:34:31;96997.69;;;7.46;50.06
15405;BME280;7801;48.124;11.590;2023-02-11T15:36:56;96999.97;;;7.43;49.94
15405;BME280;7801;48.124;11.590;2023-02-11T15:39:39;97009.03;;;7.35;50.37
15405;BME280;7801;48.124;11.590;2023-02-11T15:42:25;97015.69;;;7.38;50.55
15405;BME280;7801;48.124;11.590;2023-02-11T15:48:06;97025.69;;;7.36;50.84
15405;BME280;7801;48.124;11.590;2023-02-11T15:50:34;97014.19;;;7.30;50.92
15405;BME280;7801;48.124;11.590;2023-02-11T15:53:32;97011.34;;;7.20;51.66
15405;BME280;7801;48.124;11.590;2023-02-11T15:56:24;97011.91;;;7.10;52.01